sensor_id;sensor_type;location;lat;lon;timestamp;temperature;humidity
9998;DHT22;5038;53.064;8.624;2023-05-20T00:01:32;14.60;95.80
9998;DHT22;5038;53.064;8.624;2023-05-20T00:04:00;14.60;95.70
9998;DHT22;5038;53.064;8.624;2023-05-20T00:06:28;14.60;95.70
9998;DHT22;5038;53.064;8.624;2023-05-20T00:08:58;14.60;95.70
9998;DHT22;5038;53.064;8.624;2023-05-20T00:11:26;14.50;95.50
9998;DHT22;5038;53.064;8.624;2023-05-20T00:13:54;14.50;95.40
9998;DHT22;5038;53.064;8.624;2023-05-20T00:16:23;14.50;95.40
9998;DHT22;5038;53.064;8.624;2023-05-20T00:18:52;14.50;95.30
9998;DHT22;5038;53.064;8.624;2023-05-20T00:21:20;14.50;95.20
9998;DHT22;5038;53.064;8.624;2023-05-20T00:23:48;14.40;95.10
9998;DHT22;5038;53.064;8.624;2023-05-20T00:26:16;14.40;95.10
9998;DHT22;5038;53.064;8.624;2023-05-20T00:28:51;14.30;94.90
9998;DHT22;5038;53.064;8.624;2023-05-20T00:31:19;14.40;94.90
9998;DHT22;5038;53.064;8.624;2023-05-20T00:33:49;14.30;94.80
9998;DHT22;5038;53.064;8.624;2023-05-20T00:36:17;14.30;94.70
9998;DHT22;5038;53.064;8.624;2023-05-20T00:38:46;14.20;94.60
9998;DHT22;5038;53.064;8.624;2023-05-20T00:41:14;14.20;94.60
9998;DHT22;5038;53.064;8.624;2023-05-20T00:43:42;14.20;94.50
9998;DHT22;5038;53.064;8.624;2023-05-20T00:46:10;14.20;94.40
9998;DHT22;5038;53.064;8.624;2023-05-20T00:48:41;14.20;94.40
9998;DHT22;5038;53.064;8.624;2023-05-20T00:51:12;14.10;94.20
9998;DHT22;5038;53.064;8.624;2023-05-20T00:53:41;14.10;94.20
9998;DHT22;5038;53.064;8.624;2023-05-20T00:56:11;14.10;94.20
9998;DHT22;5038;53.064;8.624;2023-05-20T00:58:39;14.00;94.00
9998;DHT22;5038;53.064;8.624;2023-05-20T01:01:07;14.00;94.00
9998;DHT22;5038;53.064;8.624;2023-05-20T01:03:36;14.00;93.90
9998;DHT22;5038;53.064;8.624;2023-05-20T01:06:05;14.00;93.90
9998;DHT22;5038;53.064;8.624;2023-05-20T01:08:34;13.90;93.80
9998;DHT22;5038;53.064;8.624;2023-05-20T01:11:05;13.90;93.70
9998;DHT22;5038;53.064;8.624;2023-05-20T01:13:40;13.80;93.70
9998;DHT22;5038;53.064;8.624;2023-05-20T01:16:10;13.80;93.70
9998;DHT22;5038;53.064;8.624;2023-05-20T01:18:38;13.70;93.90
9998;DHT22;5038;53.064;8.624;2023-05-20T01:21:11;13.70;93.60
9998;DHT22;5038;53.064;8.624;2023-05-20T01:23:42;13.70;93.50
9998;DHT22;5038;53.064;8.624;2023-05-20T01:26:10;13.70;93.50
9998;DHT22;5038;53.064;8.624;2023-05-20T01:28:40;13.60;93.40
9998;DHT22;5038;53.064;8.624;2023-05-20T01:31:14;13.60;93.40
9998;DHT22;5038;53.064;8.624;2023-05-20T01:33:45;13.50;93.30
9998;DHT22;5038;53.064;8.624;2023-05-20T01:36:15;13.50;93.20
9998;DHT22;5038;53.064;8.624;2023-05-20T01:38:45;13.50;93.20
9998;DHT22;5038;53.064;8.624;2023-05-20T01:41:15;13.40;93.10
9998;DHT22;5038;53.064;8.624;2023-05-20T01:43:43;13.40;93.10
9998;DHT22;5038;53.064;8.624;2023-05-20T01:46:12;13.40;93.10
9998;DHT22;5038;53.064;8.624;2023-05-20T01:48:40;13.30;93.00
9998;DHT22;5038;53.064;8.624;2023-05-20T01:51:08;13.30;93.00
9998;DHT22;5038;53.064;8.624;2023-05-20T01:53:37;13.30;93.00
9998;DHT22;5038;53.064;8.624;2023-05-20T01:56:06;13.20;92.90
9998;DHT22;5038;53.064;8.624;2023-05-20T01:58:34;13.20;92.90
9998;DHT22;5038;53.064;8.624;2023-05-20T02:01:03;13.20;92.90
9998;DHT22;5038;53.064;8.624;2023-05-20T02:03:31;13.10;93.10
9998;DHT22;5038;53.064;8.624;2023-05-20T02:05:59;13.10;92.80
9998;DHT22;5038;53.064;8.624;2023-05-20T02:08:27;13.10;92.80
9998;DHT22;5038;53.064;8.624;2023-05-20T02:10:55;13.10;92.80
9998;DHT22;5038;53.064;8.624;2023-05-20T02:13:25;13.00;92.80
9998;DHT22;5038;53.064;8.624;2023-05-20T02:15:53;13.00;92.80
9998;DHT22;5038;53.064;8.624;2023-05-20T02:18:23;12.90;92.80
9998;DHT22;5038;53.064;8.624;2023-05-20T02:20:52;13.00;92.90
9998;DHT22;5038;53.064;8.624;2023-05-20T02:23:20;12.90;92.80
9998;DHT22;5038;53.064;8.624;2023-05-20T02:25:48;12.90;92.90
9998;DHT22;5038;53.064;8.624;2023-05-20T02:28:16;12.90;92.90
9998;DHT22;5038;53.064;8.624;2023-05-20T02:30:46;12.80;92.90
9998;DHT22;5038;53.064;8.624;2023-05-20T02:33:14;12.80;92.90
9998;DHT22;5038;53.064;8.624;2023-05-20T02:35:42;12.80;92.90
9998;DHT22;5038;53.064;8.624;2023-05-20T02:38:11;12.80;93.00
9998;DHT22;5038;53.064;8.624;2023-05-20T02:40:42;12.80;93.00
9998;DHT22;5038;53.064;8.624;2023-05-20T02:43:10;12.70;93.00
9998;DHT22;5038;53.064;8.624;2023-05-20T02:45:39;12.70;93.00
9998;DHT22;5038;53.064;8.624;2023-05-20T02:48:09;12.70;93.00
9998;DHT22;5038;53.064;8.624;2023-05-20T02:50:38;12.60;93.00
9998;DHT22;5038;53.064;8.624;2023-05-20T02:53:06;12.60;93.10
9998;DHT22;5038;53.064;8.624;2023-05-20T02:55:35;12.60;93.10
9998;DHT22;5038;53.064;8.624;2023-05-20T02:58:03;12.60;93.20
9998;DHT22;5038;53.064;8.624;2023-05-20T03:00:33;12.50;93.10
9998;DHT22;5038;53.064;8.624;2023-05-20T03:03:07;12.50;93.20
9998;DHT22;5038;53.064;8.624;2023-05-20T03:05:37;12.50;93.50
9998;DHT22;5038;53.064;8.624;2023-05-20T03:08:08;12.40;93.20
9998;DHT22;5038;53.064;8.624;2023-05-20T03:10:37;12.40;93.20
9998;DHT22;5038;53.064;8.624;2023-05-20T03:13:07;12.40;93.20
9998;DHT22;5038;53.064;8.624;2023-05-20T03:15:37;12.40;93.30
9998;DHT22;5038;53.064;8.624;2023-05-20T03:18:06;12.30;93.30
9998;DHT22;5038;53.064;8.624;2023-05-20T03:20:37;12.30;93.30
9998;DHT22;5038;53.064;8.624;2023-05-20T03:23:06;12.30;93.40
9998;DHT22;5038;53.064;8.624;2023-05-20T03:25:36;12.20;93.30
9998;DHT22;5038;53.064;8.624;2023-05-20T03:28:04;12.20;93.40
9998;DHT22;5038;53.064;8.624;2023-05-20T03:30:35;12.20;93.50
9998;DHT22;5038;53.064;8.624;2023-05-20T03:33:04;12.20;93.50
9998;DHT22;5038;53.064;8.624;2023-05-20T03:35:33;12.20;93.60
9998;DHT22;5038;53.064;8.624;2023-05-20T03:38:03;12.10;93.90
9998;DHT22;5038;53.064;8.624;2023-05-20T03:40:33;12.10;93.60
9998;DHT22;5038;53.064;8.624;2023-05-20T03:43:03;12.10;93.70
9998;DHT22;5038;53.064;8.624;2023-05-20T03:45:31;12.00;93.60
9998;DHT22;5038;53.064;8.624;2023-05-20T03:48:05;12.10;93.80
9998;DHT22;5038;53.064;8.624;2023-05-20T03:50:35;12.00;93.70
9998;DHT22;5038;53.064;8.624;2023-05-20T03:53:04;12.00;93.80
9998;DHT22;5038;53.064;8.624;2023-05-20T03:55:37;12.00;93.90
9998;DHT22;5038;53.064;8.624;2023-05-20T03:58:07;12.00;93.90
9998;DHT22;5038;53.064;8.624;2023-05-20T04:00:35;12.00;94.00
9998;DHT22;5038;53.064;8.624;2023-05-20T04:03:03;11.90;94.00
9998;DHT22;5038;53.064;8.624;2023-05-20T04:05:34;11.90;94.00
9998;DHT22;5038;53.064;8.624;2023-05-20T04:08:09;11.90;94.10
9998;DHT22;5038;53.064;8.624;2023-05-20T04:10:40;11.90;94.10
9998;DHT22;5038;53.064;8.624;2023-05-20T04:13:10;11.90;94.20
9998;DHT22;5038;53.064;8.624;2023-05-20T04:15:40;11.90;94.20
9998;DHT22;5038;53.064;8.624;2023-05-20T04:18:09;11.90;94.30
9998;DHT22;5038;53.064;8.624;2023-05-20T04:20:38;11.80;94.30
9998;DHT22;5038;53.064;8.624;2023-05-20T04:23:09;11.80;94.30
9998;DHT22;5038;53.064;8.624;2023-05-20T04:25:37;11.80;94.40
9998;DHT22;5038;53.064;8.624;2023-05-20T04:28:07;11.80;94.40
9998;DHT22;5038;53.064;8.624;2023-05-20T04:30:36;11.80;94.50
9998;DHT22;5038;53.064;8.624;2023-05-20T04:33:04;11.80;94.50
9998;DHT22;5038;53.064;8.624;2023-05-20T04:35:33;11.80;94.50
9998;DHT22;5038;53.064;8.624;2023-05-20T04:38:05;11.80;94.50
9998;DHT22;5038;53.064;8.624;2023-05-20T04:40:34;11.80;94.60
9998;DHT22;5038;53.064;8.624;2023-05-20T04:43:03;11.80;94.60
9998;DHT22;5038;53.064;8.624;2023-05-20T04:45:31;11.80;94.70
9998;DHT22;5038;53.064;8.624;2023-05-20T04:48:00;11.80;94.70
9998;DHT22;5038;53.064;8.624;2023-05-20T04:50:28;11.80;94.70
9998;DHT22;5038;53.064;8.624;2023-05-20T04:52:56;11.80;94.80
9998;DHT22;5038;53.064;8.624;2023-05-20T04:55:26;11.70;95.10
9998;DHT22;5038;53.064;8.624;2023-05-20T04:57:57;11.70;94.80
9998;DHT22;5038;53.064;8.624;2023-05-20T05:00:27;11.70;94.90
9998;DHT22;5038;53.064;8.624;2023-05-20T05:02:55;11.80;95.00
9998;DHT22;5038;53.064;8.624;2023-05-20T05:05:23;11.70;95.00
9998;DHT22;5038;53.064;8.624;2023-05-20T05:07:52;11.70;95.00
9998;DHT22;5038;53.064;8.624;2023-05-20T05:10:20;11.70;95.00
9998;DHT22;5038;53.064;8.624;2023-05-20T05:12:50;11.70;95.00
9998;DHT22;5038;53.064;8.624;2023-05-20T05:15:20;11.70;95.00
9998;DHT22;5038;53.064;8.624;2023-05-20T05:17:48;11.70;95.10
9998;DHT22;5038;53.064;8.624;2023-05-20T05:20:17;11.70;95.30
9998;DHT22;5038;53.064;8.624;2023-05-20T05:22:45;11.70;95.10
9998;DHT22;5038;53.064;8.624;2023-05-20T05:25:13;11.70;95.10
9998;DHT22;5038;53.064;8.624;2023-05-20T05:27:42;11.70;95.10
9998;DHT22;5038;53.064;8.624;2023-05-20T05:30:11;11.70;95.10
9998;DHT22;5038;53.064;8.624;2023-05-20T05:32:40;11.70;95.10
9998;DHT22;5038;53.064;8.624;2023-05-20T05:35:09;11.80;95.20
9998;DHT22;5038;53.064;8.624;2023-05-20T05:37:37;11.80;95.30
9998;DHT22;5038;53.064;8.624;2023-05-20T05:40:07;11.80;95.40
9998;DHT22;5038;53.064;8.624;2023-05-20T05:42:35;11.90;95.50
9998;DHT22;5038;53.064;8.624;2023-05-20T05:45:04;12.10;95.60
9998;DHT22;5038;53.064;8.624;2023-05-20T05:47:33;12.20;95.70
9998;DHT22;5038;53.064;8.624;2023-05-20T05:50:02;12.40;96.10
9998;DHT22;5038;53.064;8.624;2023-05-20T05:52:32;12.60;95.90
9998;DHT22;5038;53.064;8.624;2023-05-20T05:55:02;12.80;96.00
9998;DHT22;5038;53.064;8.624;2023-05-20T05:57:31;13.00;96.10
9998;DHT22;5038;53.064;8.624;2023-05-20T06:00:00;13.30;96.20
9998;DHT22;5038;53.064;8.624;2023-05-20T06:02:32;13.50;96.20
9998;DHT22;5038;53.064;8.624;2023-05-20T06:05:04;13.70;96.10
9998;DHT22;5038;53.064;8.624;2023-05-20T06:07:33;13.90;96.00
9998;DHT22;5038;53.064;8.624;2023-05-20T06:10:01;14.10;96.00
9998;DHT22;5038;53.064;8.624;2023-05-20T06:12:30;14.30;96.00
9998;DHT22;5038;53.064;8.624;2023-05-20T06:14:58;14.50;96.00
9998;DHT22;5038;53.064;8.624;2023-05-20T06:17:26;14.70;96.00
9998;DHT22;5038;53.064;8.624;2023-05-20T06:19:54;14.80;96.00
9998;DHT22;5038;53.064;8.624;2023-05-20T06:22:24;15.00;95.90
9998;DHT22;5038;53.064;8.624;2023-05-20T06:24:54;15.20;95.90
9998;DHT22;5038;53.064;8.624;2023-05-20T06:27:26;15.30;95.90
9998;DHT22;5038;53.064;8.624;2023-05-20T06:29:54;15.40;95.80
9998;DHT22;5038;53.064;8.624;2023-05-20T06:32:23;15.60;95.80
9998;DHT22;5038;53.064;8.624;2023-05-20T06:34:52;15.70;95.80
9998;DHT22;5038;53.064;8.624;2023-05-20T06:37:23;15.80;95.60
9998;DHT22;5038;53.064;8.624;2023-05-20T06:39:52;15.90;95.90
9998;DHT22;5038;53.064;8.624;2023-05-20T06:42:21;16.00;95.60
9998;DHT22;5038;53.064;8.624;2023-05-20T06:45:02;16.00;95.50
9998;DHT22;5038;53.064;8.624;2023-05-20T06:47:41;16.10;95.40
9998;DHT22;5038;53.064;8.624;2023-05-20T06:50:10;16.10;95.30
9998;DHT22;5038;53.064;8.624;2023-05-20T06:52:40;16.20;95.30
9998;DHT22;5038;53.064;8.624;2023-05-20T06:55:09;16.30;95.20
9998;DHT22;5038;53.064;8.624;2023-05-20T06:57:38;16.30;95.10
9998;DHT22;5038;53.064;8.624;2023-05-20T07:00:08;16.40;95.20
9998;DHT22;5038;53.064;8.624;2023-05-20T07:02:41;16.50;95.10
9998;DHT22;5038;53.064;8.624;2023-05-20T07:05:12;16.60;95.10
9998;DHT22;5038;53.064;8.624;2023-05-20T07:07:42;16.80;95.10
9998;DHT22;5038;53.064;8.624;2023-05-20T07:10:10;16.90;95.30
9998;DHT22;5038;53.064;8.624;2023-05-20T07:12:38;17.00;95.10
9998;DHT22;5038;53.064;8.624;2023-05-20T07:15:07;17.10;95.00
9998;DHT22;5038;53.064;8.624;2023-05-20T07:17:36;17.20;95.00
9998;DHT22;5038;53.064;8.624;2023-05-20T07:20:05;17.30;95.00
9998;DHT22;5038;53.064;8.624;2023-05-20T07:22:35;17.50;95.00
9998;DHT22;5038;53.064;8.624;2023-05-20T07:25:17;17.50;94.90
9998;DHT22;5038;53.064;8.624;2023-05-20T07:27:45;17.60;94.90
9998;DHT22;5038;53.064;8.624;2023-05-20T07:30:13;17.70;94.80
9998;DHT22;5038;53.064;8.624;2023-05-20T07:32:47;17.70;94.70
9998;DHT22;5038;53.064;8.624;2023-05-20T07:35:16;17.80;94.70
9998;DHT22;5038;53.064;8.624;2023-05-20T07:37:44;17.80;94.70
9998;DHT22;5038;53.064;8.624;2023-05-20T07:40:13;17.90;94.80
9998;DHT22;5038;53.064;8.624;2023-05-20T07:42:43;17.90;94.70
9998;DHT22;5038;53.064;8.624;2023-05-20T07:45:11;18.00;94.70
9998;DHT22;5038;53.064;8.624;2023-05-20T07:47:40;18.00;94.70
9998;DHT22;5038;53.064;8.624;2023-05-20T07:50:08;18.00;94.60
9998;DHT22;5038;53.064;8.624;2023-05-20T07:52:37;18.00;94.60
9998;DHT22;5038;53.064;8.624;2023-05-20T07:55:09;18.10;94.70
9998;DHT22;5038;53.064;8.624;2023-05-20T07:57:38;18.10;94.80
9998;DHT22;5038;53.064;8.624;2023-05-20T08:00:10;18.20;94.80
9998;DHT22;5038;53.064;8.624;2023-05-20T08:02:42;18.30;94.80
9998;DHT22;5038;53.064;8.624;2023-05-20T08:05:15;18.40;94.90
9998;DHT22;5038;53.064;8.624;2023-05-20T08:07:45;18.50;94.90
9998;DHT22;5038;53.064;8.624;2023-05-20T08:10:16;18.60;95.00
9998;DHT22;5038;53.064;8.624;2023-05-20T08:12:46;18.60;95.30
9998;DHT22;5038;53.064;8.624;2023-05-20T08:15:15;18.70;95.10
9998;DHT22;5038;53.064;8.624;2023-05-20T08:17:46;18.80;95.00
9998;DHT22;5038;53.064;8.624;2023-05-20T08:20:14;18.80;95.00
9998;DHT22;5038;53.064;8.624;2023-05-20T08:22:42;18.90;95.10
9998;DHT22;5038;53.064;8.624;2023-05-20T08:25:10;19.00;95.10
9998;DHT22;5038;53.064;8.624;2023-05-20T08:27:39;19.10;95.00
9998;DHT22;5038;53.064;8.624;2023-05-20T08:30:09;19.10;95.00
9998;DHT22;5038;53.064;8.624;2023-05-20T08:32:38;19.20;95.10
9998;DHT22;5038;53.064;8.624;2023-05-20T08:35:07;19.20;94.90
9998;DHT22;5038;53.064;8.624;2023-05-20T08:37:35;19.30;94.80
9998;DHT22;5038;53.064;8.624;2023-05-20T08:40:04;19.30;94.80
9998;DHT22;5038;53.064;8.624;2023-05-20T08:42:32;19.30;94.70
9998;DHT22;5038;53.064;8.624;2023-05-20T08:45:02;19.40;94.80
9998;DHT22;5038;53.064;8.624;2023-05-20T08:47:31;19.50;94.70
9998;DHT22;5038;53.064;8.624;2023-05-20T08:50:01;19.50;94.50
9998;DHT22;5038;53.064;8.624;2023-05-20T08:52:30;19.60;94.40
9998;DHT22;5038;53.064;8.624;2023-05-20T08:55:00;19.60;94.20
9998;DHT22;5038;53.064;8.624;2023-05-20T08:57:29;19.70;94.10
9998;DHT22;5038;53.064;8.624;2023-05-20T08:59:59;19.70;94.10
9998;DHT22;5038;53.064;8.624;2023-05-20T09:02:27;19.70;93.80
9998;DHT22;5038;53.064;8.624;2023-05-20T09:04:56;19.70;93.70
9998;DHT22;5038;53.064;8.624;2023-05-20T09:07:28;19.70;93.60
9998;DHT22;5038;53.064;8.624;2023-05-20T09:09:57;19.60;93.50
9998;DHT22;5038;53.064;8.624;2023-05-20T09:12:25;19.60;93.50
9998;DHT22;5038;53.064;8.624;2023-05-20T09:14:54;19.60;93.40
9998;DHT22;5038;53.064;8.624;2023-05-20T09:17:22;19.60;93.20
9998;DHT22;5038;53.064;8.624;2023-05-20T09:19:52;19.60;93.00
9998;DHT22;5038;53.064;8.624;2023-05-20T09:22:24;19.60;92.90
9998;DHT22;5038;53.064;8.624;2023-05-20T09:24:54;19.60;93.00
9998;DHT22;5038;53.064;8.624;2023-05-20T09:27:22;19.60;92.90
9998;DHT22;5038;53.064;8.624;2023-05-20T09:29:51;19.50;92.80
9998;DHT22;5038;53.064;8.624;2023-05-20T09:32:20;19.50;92.80
9998;DHT22;5038;53.064;8.624;2023-05-20T09:34:50;19.40;92.60
9998;DHT22;5038;53.064;8.624;2023-05-20T09:37:20;19.40;92.60
9998;DHT22;5038;53.064;8.624;2023-05-20T09:39:56;19.40;92.60
9998;DHT22;5038;53.064;8.624;2023-05-20T09:42:38;19.50;92.60
9998;DHT22;5038;53.064;8.624;2023-05-20T09:45:07;19.60;92.90
9998;DHT22;5038;53.064;8.624;2023-05-20T09:47:37;19.70;92.80
9998;DHT22;5038;53.064;8.624;2023-05-20T09:50:08;19.80;92.60
9998;DHT22;5038;53.064;8.624;2023-05-20T09:52:37;19.90;92.50
9998;DHT22;5038;53.064;8.624;2023-05-20T09:55:08;19.90;92.10
9998;DHT22;5038;53.064;8.624;2023-05-20T09:57:37;19.90;92.00
9998;DHT22;5038;53.064;8.624;2023-05-20T10:00:06;19.90;92.00
9998;DHT22;5038;53.064;8.624;2023-05-20T10:02:41;20.00;92.00
9998;DHT22;5038;53.064;8.624;2023-05-20T10:05:15;20.10;91.60
9998;DHT22;5038;53.064;8.624;2023-05-20T10:11:03;20.20;91.70
9998;DHT22;5038;53.064;8.624;2023-05-20T10:13:48;20.30;91.80
9998;DHT22;5038;53.064;8.624;2023-05-20T10:16:28;20.30;91.80
9998;DHT22;5038;53.064;8.624;2023-05-20T10:19:09;20.30;91.50
9998;DHT22;5038;53.064;8.624;2023-05-20T10:21:39;20.40;91.40
9998;DHT22;5038;53.064;8.624;2023-05-20T10:24:07;20.40;91.00
9998;DHT22;5038;53.064;8.624;2023-05-20T10:26:40;20.50;91.10
9998;DHT22;5038;53.064;8.624;2023-05-20T10:29:15;20.50;91.10
9998;DHT22;5038;53.064;8.624;2023-05-20T10:31:44;20.50;91.10
9998;DHT22;5038;53.064;8.624;2023-05-20T10:34:14;20.60;91.20
9998;DHT22;5038;53.064;8.624;2023-05-20T10:36:45;20.60;91.10
9998;DHT22;5038;53.064;8.624;2023-05-20T10:39:15;20.60;90.90
9998;DHT22;5038;53.064;8.624;2023-05-20T10:41:45;20.60;90.80
9998;DHT22;5038;53.064;8.624;2023-05-20T10:44:16;20.60;90.70
9998;DHT22;5038;53.064;8.624;2023-05-20T10:46:45;20.60;90.70
9998;DHT22;5038;53.064;8.624;2023-05-20T10:49:33;20.60;90.60
9998;DHT22;5038;53.064;8.624;2023-05-20T10:52:05;20.60;90.40
9998;DHT22;5038;53.064;8.624;2023-05-20T10:54:34;20.60;90.30
9998;DHT22;5038;53.064;8.624;2023-05-20T10:57:07;20.60;90.30
9998;DHT22;5038;53.064;8.624;2023-05-20T10:59:36;20.60;90.20
9998;DHT22;5038;53.064;8.624;2023-05-20T11:02:04;20.60;90.50
9998;DHT22;5038;53.064;8.624;2023-05-20T11:04:33;20.60;90.30
9998;DHT22;5038;53.064;8.624;2023-05-20T11:07:01;20.60;90.20
9998;DHT22;5038;53.064;8.624;2023-05-20T11:09:30;20.60;90.20
9998;DHT22;5038;53.064;8.624;2023-05-20T11:11:58;20.60;90.40
9998;DHT22;5038;53.064;8.624;2023-05-20T11:14:28;20.60;90.50
9998;DHT22;5038;53.064;8.624;2023-05-20T11:16:58;20.60;90.60
9998;DHT22;5038;53.064;8.624;2023-05-20T11:19:26;20.70;90.70
9998;DHT22;5038;53.064;8.624;2023-05-20T11:21:54;20.80;90.70
9998;DHT22;5038;53.064;8.624;2023-05-20T11:24:24;20.80;90.70
9998;DHT22;5038;53.064;8.624;2023-05-20T11:26:54;20.80;90.70
9998;DHT22;5038;53.064;8.624;2023-05-20T11:29:25;20.80;90.60
9998;DHT22;5038;53.064;8.624;2023-05-20T11:31:56;20.80;90.60
9998;DHT22;5038;53.064;8.624;2023-05-20T11:34:24;20.70;90.60
9998;DHT22;5038;53.064;8.624;2023-05-20T11:36:56;20.60;90.50
9998;DHT22;5038;53.064;8.624;2023-05-20T11:39:25;20.50;90.50
9998;DHT22;5038;53.064;8.624;2023-05-20T11:41:56;20.50;90.60
9998;DHT22;5038;53.064;8.624;2023-05-20T11:44:25;20.40;90.70
9998;DHT22;5038;53.064;8.624;2023-05-20T11:47:00;20.50;90.70
9998;DHT22;5038;53.064;8.624;2023-05-20T11:49:28;20.50;90.70
9998;DHT22;5038;53.064;8.624;2023-05-20T11:51:57;20.40;90.80
9998;DHT22;5038;53.064;8.624;2023-05-20T11:54:25;20.40;90.80
9998;DHT22;5038;53.064;8.624;2023-05-20T11:56:55;20.30;90.80
9998;DHT22;5038;53.064;8.624;2023-05-20T11:59:23;20.20;90.70
9998;DHT22;5038;53.064;8.624;2023-05-20T12:01:52;20.20;90.70
9998;DHT22;5038;53.064;8.624;2023-05-20T12:04:21;20.10;90.60
9998;DHT22;5038;53.064;8.624;2023-05-20T12:06:49;19.90;90.60
9998;DHT22;5038;53.064;8.624;2023-05-20T12:09:19;19.90;90.70
9998;DHT22;5038;53.064;8.624;2023-05-20T12:11:48;19.80;90.70
9998;DHT22;5038;53.064;8.624;2023-05-20T12:14:16;19.70;90.80
9998;DHT22;5038;53.064;8.624;2023-05-20T12:16:44;19.70;91.00
9998;DHT22;5038;53.064;8.624;2023-05-20T12:19:12;19.70;91.00
9998;DHT22;5038;53.064;8.624;2023-05-20T12:21:42;19.60;91.00
9998;DHT22;5038;53.064;8.624;2023-05-20T12:24:12;19.60;91.10
9998;DHT22;5038;53.064;8.624;2023-05-20T12:26:41;19.50;91.10
9998;DHT22;5038;53.064;8.624;2023-05-20T12:29:09;19.50;91.20
9998;DHT22;5038;53.064;8.624;2023-05-20T12:31:37;19.50;91.20
9998;DHT22;5038;53.064;8.624;2023-05-20T12:34:05;19.40;91.20
9998;DHT22;5038;53.064;8.624;2023-05-20T12:36:33;19.30;91.20
9998;DHT22;5038;53.064;8.624;2023-05-20T12:39:03;19.30;91.40
9998;DHT22;5038;53.064;8.624;2023-05-20T12:41:31;19.30;91.40
9998;DHT22;5038;53.064;8.624;2023-05-20T12:44:00;19.30;91.70
9998;DHT22;5038;53.064;8.624;2023-05-20T12:46:28;19.30;91.50
9998;DHT22;5038;53.064;8.624;2023-05-20T12:48:57;19.30;91.50
9998;DHT22;5038;53.064;8.624;2023-05-20T12:51:25;19.30;91.40
9998;DHT22;5038;53.064;8.624;2023-05-20T12:53:53;19.20;91.40
9998;DHT22;5038;53.064;8.624;2023-05-20T12:56:23;19.20;91.50
9998;DHT22;5038;53.064;8.624;2023-05-20T12:58:52;19.10;91.40
9998;DHT22;5038;53.064;8.624;2023-05-20T13:01:20;19.10;91.50
9998;DHT22;5038;53.064;8.624;2023-05-20T13:03:49;19.10;91.60
9998;DHT22;5038;53.064;8.624;2023-05-20T13:06:23;19.10;91.90
9998;DHT22;5038;53.064;8.624;2023-05-20T13:08:52;19.10;91.60
9998;DHT22;5038;53.064;8.624;2023-05-20T13:11:20;19.00;91.60
9998;DHT22;5038;53.064;8.624;2023-05-20T13:13:49;19.00;91.60
9998;DHT22;5038;53.064;8.624;2023-05-20T13:16:18;18.90;91.70
9998;DHT22;5038;53.064;8.624;2023-05-20T13:18:46;18.90;91.80
9998;DHT22;5038;53.064;8.624;2023-05-20T13:21:14;18.90;91.80
9998;DHT22;5038;53.064;8.624;2023-05-20T13:23:43;18.90;91.70
9998;DHT22;5038;53.064;8.624;2023-05-20T13:26:12;18.90;91.80
9998;DHT22;5038;53.064;8.624;2023-05-20T13:28:40;18.90;91.80
9998;DHT22;5038;53.064;8.624;2023-05-20T13:31:09;18.90;91.90
9998;DHT22;5038;53.064;8.624;2023-05-20T13:33:37;19.00;92.00
9998;DHT22;5038;53.064;8.624;2023-05-20T13:36:06;19.10;92.10
9998;DHT22;5038;53.064;8.624;2023-05-20T13:38:34;19.10;92.10
9998;DHT22;5038;53.064;8.624;2023-05-20T13:41:03;19.20;92.40
9998;DHT22;5038;53.064;8.624;2023-05-20T13:43:31;19.30;92.30
9998;DHT22;5038;53.064;8.624;2023-05-20T13:45:59;19.30;92.30
9998;DHT22;5038;53.064;8.624;2023-05-20T13:48:29;19.30;92.20
9998;DHT22;5038;53.064;8.624;2023-05-20T13:50:58;19.30;92.30
9998;DHT22;5038;53.064;8.624;2023-05-20T13:53:27;19.30;92.20
9998;DHT22;5038;53.064;8.624;2023-05-20T13:55:55;19.20;92.30
9998;DHT22;5038;53.064;8.624;2023-05-20T13:58:24;19.20;92.30
9998;DHT22;5038;53.064;8.624;2023-05-20T14:00:52;19.20;92.40
9998;DHT22;5038;53.064;8.624;2023-05-20T14:03:20;19.30;92.50
9998;DHT22;5038;53.064;8.624;2023-05-20T14:05:50;19.30;92.50
9998;DHT22;5038;53.064;8.624;2023-05-20T14:08:18;19.40;92.60
9998;DHT22;5038;53.064;8.624;2023-05-20T14:10:46;19.50;92.50
9998;DHT22;5038;53.064;8.624;2023-05-20T14:13:15;19.40;92.40
9998;DHT22;5038;53.064;8.624;2023-05-20T14:15:43;19.40;92.30
9998;DHT22;5038;53.064;8.624;2023-05-20T14:18:11;19.40;92.30
9998;DHT22;5038;53.064;8.624;2023-05-20T14:20:39;19.40;92.40
9998;DHT22;5038;53.064;8.624;2023-05-20T14:23:09;19.40;92.30
9998;DHT22;5038;53.064;8.624;2023-05-20T14:25:37;19.40;92.50
9998;DHT22;5038;53.064;8.624;2023-05-20T14:28:05;19.40;92.30
9998;DHT22;5038;53.064;8.624;2023-05-20T14:30:33;19.50;92.40
9998;DHT22;5038;53.064;8.624;2023-05-20T14:33:02;19.50;92.50
9998;DHT22;5038;53.064;8.624;2023-05-20T14:35:30;19.50;92.50
9998;DHT22;5038;53.064;8.624;2023-05-20T14:37:59;19.50;92.50
9998;DHT22;5038;53.064;8.624;2023-05-20T14:40:28;19.50;92.60
9998;DHT22;5038;53.064;8.624;2023-05-20T14:42:56;19.50;92.50
9998;DHT22;5038;53.064;8.624;2023-05-20T14:45:24;19.40;92.40
9998;DHT22;5038;53.064;8.624;2023-05-20T14:47:52;19.30;92.40
9998;DHT22;5038;53.064;8.624;2023-05-20T14:50:21;19.30;92.50
9998;DHT22;5038;53.064;8.624;2023-05-20T14:52:49;19.40;92.60
9998;DHT22;5038;53.064;8.624;2023-05-20T14:55:17;19.30;92.60
9998;DHT22;5038;53.064;8.624;2023-05-20T14:57:47;19.40;92.70
9998;DHT22;5038;53.064;8.624;2023-05-20T15:00:15;19.30;92.70
9998;DHT22;5038;53.064;8.624;2023-05-20T15:02:43;19.40;92.80
9998;DHT22;5038;53.064;8.624;2023-05-20T15:05:11;19.30;92.80
9998;DHT22;5038;53.064;8.624;2023-05-20T15:07:42;19.40;92.80
9998;DHT22;5038;53.064;8.624;2023-05-20T15:10:11;19.30;92.80
9998;DHT22;5038;53.064;8.624;2023-05-20T15:12:40;19.30;92.90
9998;DHT22;5038;53.064;8.624;2023-05-20T15:15:10;19.20;93.00
9998;DHT22;5038;53.064;8.624;2023-05-20T15:17:38;19.20;92.80
9998;DHT22;5038;53.064;8.624;2023-05-20T15:20:07;19.10;92.80
9998;DHT22;5038;53.064;8.624;2023-05-20T15:22:36;19.10;92.90
9998;DHT22;5038;53.064;8.624;2023-05-20T15:25:04;19.10;93.20
9998;DHT22;5038;53.064;8.624;2023-05-20T15:27:33;19.10;93.00
9998;DHT22;5038;53.064;8.624;2023-05-20T15:30:01;19.10;93.10
9998;DHT22;5038;53.064;8.624;2023-05-20T15:32:31;19.10;93.10
9998;DHT22;5038;53.064;8.624;2023-05-20T15:34:59;19.20;93.20
9998;DHT22;5038;53.064;8.624;2023-05-20T15:37:28;19.20;93.20
9998;DHT22;5038;53.064;8.624;2023-05-20T15:39:56;19.10;93.20
9998;DHT22;5038;53.064;8.624;2023-05-20T15:42:24;19.10;93.20
9998;DHT22;5038;53.064;8.624;2023-05-20T15:44:53;19.10;93.30
9998;DHT22;5038;53.064;8.624;2023-05-20T15:47:21;19.10;93.30
9998;DHT22;5038;53.064;8.624;2023-05-20T15:49:51;19.10;93.30
9998;DHT22;5038;53.064;8.624;2023-05-20T15:52:20;19.00;93.30
9998;DHT22;5038;53.064;8.624;2023-05-20T15:54:48;19.00;93.50
9998;DHT22;5038;53.064;8.624;2023-05-20T15:57:16;19.00;93.50
9998;DHT22;5038;53.064;8.624;2023-05-20T15:59:44;19.00;93.60
9998;DHT22;5038;53.064;8.624;2023-05-20T16:02:13;19.00;93.60
9998;DHT22;5038;53.064;8.624;2023-05-20T16:04:41;19.00;93.60
9998;DHT22;5038;53.064;8.624;2023-05-20T16:07:10;18.90;93.70
9998;DHT22;5038;53.064;8.624;2023-05-20T16:09:39;18.90;93.80
9998;DHT22;5038;53.064;8.624;2023-05-20T16:12:07;18.90;93.80
9998;DHT22;5038;53.064;8.624;2023-05-20T16:14:35;18.90;93.80
9998;DHT22;5038;53.064;8.624;2023-05-20T16:17:03;18.90;93.80
9998;DHT22;5038;53.064;8.624;2023-05-20T16:19:31;18.90;93.90